createdAt,value
2017-10-01T00:00:17.319Z,5.1
2017-10-01T00:02:17.274Z,5.3
2017-10-01T00:04:17.276Z,5.6
2017-10-01T00:06:17.225Z,5.4
2017-10-01T00:08:17.193Z,5.3
2017-10-01T00:10:18.155Z,5.7
2017-10-01T00:12:17.115Z,5.9
2017-10-01T00:14:17.084Z,5.8
2017-10-01T00:16:17.087Z,5.7
2017-10-01T00:18:17.018Z,5.7
2017-10-01T00:20:16.983Z,6.3
2017-10-01T00:22:16.957Z,6.5
2017-10-01T00:24:16.908Z,5.7
2017-10-01T00:26:17.861Z,6.2
2017-10-01T00:28:16.873Z,5.4
2017-10-01T00:30:16.821Z,6
2017-10-01T00:32:16.787Z,5.9
2017-10-01T00:34:16.754Z,6.1
2017-10-01T00:36:17.690Z,5.4
2017-10-01T00:38:17.660Z,5.2
2017-10-01T00:40:17.625Z,6.5
2017-10-01T00:42:17.596Z,5.3
2017-10-01T00:44:17.562Z,5.8
2017-10-01T00:46:17.508Z,5.6
2017-10-01T00:48:17.506Z,6
2017-10-01T00:50:17.472Z,5.3
2017-10-01T00:52:17.392Z,5.8
2017-10-01T00:54:17.352Z,5.5
2017-10-01T00:56:17.341Z,5.1
2017-10-01T00:58:17.260Z,6
2017-10-01T01:00:17.234Z,5.8
2017-10-01T01:02:17.218Z,6.3
2017-10-01T01:04:17.213Z,6.1
2017-10-01T01:06:18.140Z,5.8
2017-10-01T01:08:17.118Z,6.1
2017-10-01T01:10:18.054Z,5.8
2017-10-01T01:12:17.023Z,5.9
2017-10-01T01:14:16.992Z,6.6
2017-10-01T01:16:17.937Z,5.7
2017-10-01T01:18:16.897Z,5.7
2017-10-01T01:20:16.841Z,5.4
2017-10-01T01:22:16.820Z,5.9
2017-10-01T01:24:16.780Z,5.6
2017-10-01T01:26:17.770Z,6.1
2017-10-01T01:28:16.713Z,5.9
2017-10-01T01:30:17.699Z,5.5
2017-10-01T01:32:17.616Z,6.6
2017-10-01T01:34:17.583Z,5.3
2017-10-01T01:36:17.561Z,5.6
2017-10-01T01:38:17.511Z,5.9
2017-10-01T01:40:17.476Z,6.1
2017-10-01T01:42:17.464Z,6.5
2017-10-01T01:44:17.381Z,5.8
2017-10-01T01:46:17.366Z,5.4
2017-10-01T01:48:17.348Z,6.2
2017-10-01T01:50:17.309Z,6.1
2017-10-01T01:52:17.240Z,6.6
2017-10-01T01:54:17.199Z,5.8
2017-10-01T01:56:17.142Z,6.3
2017-10-01T01:58:17.108Z,5.8
2017-10-01T02:00:17.070Z,5.5
2017-10-01T02:02:17.034Z,6.3
2017-10-01T02:04:16.983Z,6.1
2017-10-01T02:06:17.968Z,7
2017-10-01T02:08:16.882Z,6
2017-10-01T02:10:17.853Z,5.9
2017-10-01T02:12:16.805Z,5.6
2017-10-01T02:14:16.738Z,6.2
2017-10-01T02:16:17.726Z,6
2017-10-01T02:18:16.643Z,6.4
2017-10-01T02:20:17.597Z,6.6
2017-10-01T02:22:17.606Z,6.2
2017-10-01T02:24:17.525Z,5.8
2017-10-01T02:26:17.477Z,5.9
2017-10-01T02:28:17.455Z,5.8
2017-10-01T02:30:17.394Z,6.2
2017-10-01T02:32:17.351Z,6.3
2017-10-01T02:34:17.357Z,6.4
2017-10-01T02:36:17.262Z,6.2
2017-10-01T02:38:17.245Z,6.1
2017-10-01T02:40:17.159Z,7
2017-10-01T02:42:17.144Z,6.1
2017-10-01T02:44:17.057Z,6.3
2017-10-01T02:46:17.067Z,5.9
2017-10-01T02:48:17.000Z,6.9
2017-10-01T02:50:16.942Z,6.2
2017-10-01T02:52:16.905Z,6.3
2017-10-01T02:54:16.870Z,6.4
2017-10-01T02:56:16.797Z,6.7
2017-10-01T02:58:16.765Z,6.4
2017-10-01T03:00:16.720Z,6.5
2017-10-01T03:02:17.659Z,6
2017-10-01T03:04:17.654Z,6.3
2017-10-01T03:06:17.561Z,6.9
2017-10-01T03:08:17.543Z,6.9
2017-10-01T03:10:17.499Z,5.9
2017-10-01T03:12:17.474Z,6.4
2017-10-01T03:14:17.434Z,6
2017-10-01T03:16:17.419Z,5.9
2017-10-01T03:18:17.355Z,5.8
2017-10-01T03:20:17.307Z,6.4
2017-10-01T03:22:17.287Z,6.5
2017-10-01T03:24:17.244Z,6.9
2017-10-01T03:26:18.162Z,6.2
2017-10-01T03:28:17.124Z,6.9
2017-10-01T03:30:17.078Z,6.3
2017-10-01T03:32:17.007Z,6.2
2017-10-01T03:34:16.962Z,6.4
2017-10-01T03:36:17.924Z,5.7
2017-10-01T03:38:16.877Z,6.9
2017-10-01T03:40:17.823Z,7
2017-10-01T03:42:16.786Z,6.5
2017-10-01T03:44:16.738Z,6.3
2017-10-01T03:46:17.724Z,7
2017-10-01T03:48:17.642Z,6.2
2017-10-01T03:50:17.614Z,6.7
2017-10-01T03:52:17.567Z,5.9
2017-10-01T03:54:17.489Z,7.1
2017-10-01T03:56:17.462Z,6.4
2017-10-01T03:58:17.443Z,6.7
2017-10-01T04:00:17.349Z,6.2
2017-10-01T04:02:17.336Z,6.7
2017-10-01T04:04:17.302Z,6.9
2017-10-01T04:06:17.229Z,6.6
2017-10-01T04:08:17.208Z,6.2
2017-10-01T04:10:18.159Z,7.8
2017-10-01T04:12:17.112Z,6.5
2017-10-01T04:14:17.074Z,6.4
2017-10-01T04:16:18.010Z,7.1
2017-10-01T04:18:16.978Z,7.1
2017-10-01T04:20:16.966Z,7.8
2017-10-01T04:22:16.871Z,7.2
2017-10-01T04:24:16.832Z,6.9
2017-10-01T04:26:17.825Z,6.5
2017-10-01T04:28:16.737Z,6.9
2017-10-01T04:30:17.696Z,6.9
2017-10-01T04:32:17.681Z,7.1
2017-10-01T04:34:17.598Z,7.3
2017-10-01T04:36:17.571Z,7.2
2017-10-01T04:38:17.553Z,7.3
2017-10-01T04:40:17.514Z,7.4
2017-10-01T04:42:17.419Z,7
2017-10-01T04:44:17.400Z,6.8
2017-10-01T04:46:17.350Z,7.3
2017-10-01T04:48:17.293Z,7.4
2017-10-01T04:50:17.291Z,6.8
2017-10-01T04:52:17.199Z,7.3
2017-10-01T04:54:17.140Z,7.9
2017-10-01T04:56:17.125Z,6.8
2017-10-01T04:58:17.038Z,6.8
2017-10-01T05:00:16.969Z,7.4
2017-10-01T05:02:16.954Z,7.8
2017-10-01T05:04:16.858Z,7.1
2017-10-01T05:06:17.812Z,7.1
2017-10-01T05:08:16.789Z,7.8
2017-10-01T05:10:17.690Z,7.7
2017-10-01T05:12:17.670Z,8.1
2017-10-01T05:14:17.622Z,7
2017-10-01T05:16:17.551Z,7.8
2017-10-01T05:18:17.517Z,7.4
2017-10-01T05:20:17.466Z,7.9
2017-10-01T05:22:17.407Z,7.9
2017-10-01T05:24:17.360Z,7.6
2017-10-01T05:26:17.335Z,7.5
2017-10-01T05:28:17.297Z,7.9
2017-10-01T05:30:17.221Z,7.8
2017-10-01T05:32:17.193Z,7.2
2017-10-01T05:34:17.124Z,8.1
2017-10-01T05:36:18.066Z,7.9
2017-10-01T05:38:17.045Z,7.9
2017-10-01T05:40:17.964Z,7.6
2017-10-01T05:42:16.937Z,8.1
2017-10-01T05:44:16.922Z,8.2
2017-10-01T05:46:17.822Z,7.7
2017-10-01T05:48:16.788Z,8.4
2017-10-01T05:50:16.727Z,8
2017-10-01T05:52:17.648Z,8.2
2017-10-01T05:54:17.604Z,7.8
2017-10-01T05:56:17.554Z,7.5
2017-10-01T05:58:17.506Z,7.6
2017-10-01T06:00:17.450Z,7.1
2017-10-01T06:02:17.419Z,7.9
2017-10-01T06:04:17.368Z,7.8
2017-10-01T06:06:17.300Z,8.5
2017-10-01T06:08:17.268Z,7.6
2017-10-01T06:10:17.189Z,7.5
2017-10-01T06:12:17.141Z,7.9
2017-10-01T06:14:17.137Z,7.6
2017-10-01T06:16:17.043Z,7.6
2017-10-01T06:18:16.964Z,8.3
2017-10-01T06:20:16.906Z,7.3
2017-10-01T06:22:16.865Z,8.2
2017-10-01T06:24:16.845Z,7.3
2017-10-01T06:26:16.740Z,8.3
2017-10-01T06:28:17.659Z,7.6
2017-10-01T06:30:17.603Z,8.1
2017-10-01T06:32:17.534Z,7.6
2017-10-01T06:34:17.464Z,7.5
2017-10-01T06:36:18.449Z,7.9
2017-10-01T06:38:17.372Z,8.1
2017-10-01T06:40:17.312Z,8.4
2017-10-01T06:42:17.275Z,7.5
2017-10-01T06:44:17.204Z,7.8
2017-10-01T06:46:17.184Z,7.2
2017-10-01T06:48:17.111Z,8
2017-10-01T06:50:17.017Z,7.8
2017-10-01T06:52:16.984Z,8
2017-10-01T06:54:16.937Z,7.1
2017-10-01T06:56:17.875Z,7.8
2017-10-01T06:58:16.817Z,7.1
2017-10-01T07:00:16.775Z,7.5
2017-10-01T07:02:16.761Z,7.8
2017-10-01T07:04:16.667Z,7.5
2017-10-01T07:06:17.625Z,7.7
2017-10-01T07:08:17.579Z,7.8
2017-10-01T07:10:17.542Z,7.6
2017-10-01T07:12:17.457Z,7.8
2017-10-01T07:14:17.385Z,7.7
2017-10-01T07:16:18.363Z,8
2017-10-01T07:18:17.327Z,7.7
2017-10-01T07:20:17.242Z,7.8
2017-10-01T07:22:17.229Z,8.3
2017-10-01T07:24:17.148Z,7.8
2017-10-01T07:26:17.094Z,8.1
2017-10-01T07:28:17.051Z,8
2017-10-01T07:30:17.001Z,7.1
2017-10-01T07:32:16.940Z,6.8
2017-10-01T07:34:16.928Z,6.9
2017-10-01T07:36:17.851Z,7.1
2017-10-01T07:38:16.788Z,6.5
2017-10-01T07:40:17.747Z,4.4
2017-10-01T07:42:16.729Z,2.5
2017-10-01T07:44:17.681Z,2.1
2017-10-01T07:46:17.672Z,1.5
2017-10-01T07:48:17.608Z,0.6
2017-10-01T07:50:17.591Z,0.5
2017-10-01T07:52:17.537Z,0.5
2017-10-01T07:54:17.488Z,0.3
2017-10-01T07:56:17.461Z,0.4
2017-10-01T07:58:17.356Z,0.3
2017-10-01T08:00:17.327Z,0.4
2017-10-01T08:02:17.300Z,0.3
2017-10-01T08:04:17.178Z,0.4
2017-10-01T08:06:18.158Z,0.3
2017-10-01T08:08:17.097Z,0.5
2017-10-01T08:10:17.986Z,0.3
2017-10-01T08:12:16.948Z,0.3
2017-10-01T08:14:16.907Z,0.3
2017-10-01T08:16:16.812Z,0.4
2017-10-01T08:18:16.727Z,0.3
2017-10-01T08:20:17.653Z,0.4
2017-10-01T08:22:17.576Z,0.5
2017-10-01T08:24:17.483Z,0.4
2017-10-01T08:26:17.401Z,0.3
2017-10-01T08:28:17.323Z,0.4
2017-10-01T08:30:17.256Z,0.4
2017-10-01T08:32:17.233Z,0.5
2017-10-01T08:34:17.119Z,0.4
2017-10-01T08:36:18.032Z,0.3
2017-10-01T08:38:16.990Z,0.2
2017-10-01T08:40:17.888Z,0.5
2017-10-01T08:42:16.843Z,0.4
2017-10-01T08:44:16.773Z,0.4
2017-10-01T08:46:17.679Z,0.5
2017-10-01T08:48:17.600Z,0.4
2017-10-01T08:50:17.524Z,0.3
2017-10-01T08:52:17.438Z,0.3
2017-10-01T08:54:17.373Z,0.5
2017-10-01T08:56:18.294Z,0.4
2017-10-01T08:58:17.194Z,0.3
2017-10-01T09:00:17.114Z,0.3
2017-10-01T09:02:17.038Z,0.3
2017-10-01T09:04:16.948Z,0.3
2017-10-01T09:06:17.874Z,0.3
2017-10-01T09:08:16.821Z,0.4
2017-10-01T09:10:17.706Z,0.3
2017-10-01T09:12:17.629Z,0.4
2017-10-01T09:14:17.578Z,0.2
2017-10-01T09:16:17.448Z,0.2
2017-10-01T09:18:17.375Z,0.2
2017-10-01T09:20:17.279Z,0.2
2017-10-01T09:22:17.212Z,0.2
2017-10-01T09:24:17.120Z,0.3
2017-10-01T09:26:17.067Z,0.2
2017-10-01T09:28:16.986Z,0.2
2017-10-01T09:30:16.937Z,0.2
2017-10-01T09:32:16.851Z,0.2
2017-10-01T09:34:16.761Z,0.2
2017-10-01T09:36:17.702Z,0.2
2017-10-01T09:38:17.579Z,0.2
2017-10-01T09:40:17.547Z,0.2
2017-10-01T09:42:17.472Z,0.2
2017-10-01T09:44:17.383Z,0.3
2017-10-01T09:46:17.300Z,0.2
2017-10-01T09:48:17.243Z,0.2
2017-10-01T09:50:17.140Z,0.2
2017-10-01T09:52:17.064Z,0.2
2017-10-01T09:54:17.022Z,0.2
2017-10-01T09:56:16.923Z,0.2
2017-10-01T09:58:16.834Z,0.4
2017-10-01T10:00:16.776Z,0.4
2017-10-01T10:02:16.656Z,0.5
2017-10-01T10:04:17.575Z,0.3
2017-10-01T10:06:17.517Z,0.3
2017-10-01T10:08:17.425Z,0.4
2017-10-01T10:10:17.348Z,0.3
2017-10-01T10:12:17.274Z,0.7
2017-10-01T10:14:17.175Z,0.3
2017-10-01T10:16:18.103Z,0.2
2017-10-01T10:18:17.033Z,0.3
2017-10-01T10:20:16.944Z,0.3
2017-10-01T10:22:16.858Z,0.3
2017-10-01T10:24:16.851Z,0.4
2017-10-01T10:26:17.763Z,0.4
2017-10-01T10:28:16.718Z,0.4
2017-10-01T10:30:17.630Z,0.5
2017-10-01T10:32:17.579Z,0.5
2017-10-01T10:34:17.496Z,0.4
2017-10-01T10:36:17.443Z,0.4
2017-10-01T10:38:17.360Z,0.4
2017-10-01T10:40:17.310Z,0.4
2017-10-01T10:42:17.226Z,0.5
2017-10-01T10:44:17.180Z,0.5
2017-10-01T10:46:18.126Z,0.6
2017-10-01T10:48:17.027Z,0.6
2017-10-01T10:50:16.964Z,0.5
2017-10-01T10:52:16.901Z,0.8
2017-10-01T10:54:16.831Z,0.6
2017-10-01T10:56:17.750Z,0.7
2017-10-01T10:58:16.724Z,0.7
2017-10-01T11:00:17.646Z,0.8
2017-10-01T11:02:17.574Z,0.6
2017-10-01T11:04:17.513Z,0.7
2017-10-01T11:06:17.438Z,0.6
2017-10-01T11:08:17.395Z,0.6
2017-10-01T11:10:17.326Z,0.6
2017-10-01T11:12:17.279Z,0.7
2017-10-01T11:14:17.214Z,0.7
2017-10-01T11:16:18.204Z,0.8
2017-10-01T11:18:21.094Z,1
2017-10-01T11:20:17.039Z,0.7
2017-10-01T11:22:17.036Z,0.9
2017-10-01T11:24:16.961Z,1
2017-10-01T11:26:17.899Z,0.9
2017-10-01T11:28:16.888Z,1
2017-10-01T11:30:16.831Z,1.3
2017-10-01T11:32:16.771Z,1.3
2017-10-01T11:34:16.724Z,1.5
2017-10-01T11:36:17.622Z,1.4
2017-10-01T11:38:17.570Z,1.7
2017-10-01T11:40:17.510Z,1.8
2017-10-01T11:42:17.464Z,1.8
2017-10-01T11:44:17.358Z,1.7
2017-10-01T11:46:17.330Z,1.8
2017-10-01T11:48:17.276Z,1.5
2017-10-01T11:50:17.187Z,1.5
2017-10-01T11:52:17.156Z,1.9
2017-10-01T11:54:17.045Z,1.4
2017-10-01T11:56:16.984Z,1.9
2017-10-01T11:58:16.936Z,1.8
2017-10-01T12:00:16.847Z,1.4
2017-10-01T12:02:16.807Z,1.3
2017-10-01T12:04:16.756Z,1.7
2017-10-01T12:06:17.643Z,1
2017-10-01T12:08:17.568Z,1.2
2017-10-01T12:10:17.506Z,1.7
2017-10-01T12:12:17.455Z,1.4
2017-10-01T12:14:17.382Z,1.3
2017-10-01T12:16:17.333Z,1.5
2017-10-01T12:18:17.276Z,1.5
2017-10-01T12:20:17.207Z,1.4
2017-10-01T12:22:17.138Z,1.1
2017-10-01T12:24:17.063Z,1.4
2017-10-01T12:26:18.006Z,1.1
2017-10-01T12:28:16.936Z,1.1
2017-10-01T12:30:16.883Z,1.2
2017-10-01T12:32:16.799Z,1
2017-10-01T12:34:16.753Z,1.4
2017-10-01T12:36:17.737Z,1.1
2017-10-01T12:38:17.689Z,1.1
2017-10-01T12:40:17.637Z,1.3
2017-10-01T12:42:17.591Z,1.3
2017-10-01T12:44:17.529Z,1
2017-10-01T12:46:17.495Z,1.1
2017-10-01T12:48:17.451Z,1.1
2017-10-01T12:50:17.404Z,0.9
2017-10-01T12:52:17.383Z,0.9
2017-10-01T12:54:17.324Z,1
2017-10-01T12:56:18.275Z,1.2
2017-10-01T12:58:17.238Z,0.8
2017-10-01T13:00:17.183Z,0.9
2017-10-01T13:02:17.145Z,0.9
2017-10-01T13:04:17.104Z,0.8
2017-10-01T13:06:17.063Z,0.9
2017-10-01T13:08:17.036Z,0.9
2017-10-01T13:10:17.965Z,0.9
2017-10-01T13:12:16.910Z,0.9
2017-10-01T13:14:16.884Z,0.8
2017-10-01T13:16:17.829Z,0.9
2017-10-01T13:18:16.825Z,0.8
2017-10-01T13:20:16.772Z,1
2017-10-01T13:22:16.744Z,0.7
2017-10-01T13:24:17.720Z,0.8
2017-10-01T13:26:17.640Z,0.7
2017-10-01T13:28:17.655Z,0.7
2017-10-01T13:30:17.595Z,0.8
2017-10-01T13:32:17.587Z,0.6
2017-10-01T13:34:17.578Z,0.7
2017-10-01T13:36:17.530Z,0.8
2017-10-01T13:38:17.502Z,0.8
2017-10-01T13:40:17.507Z,0.9
2017-10-01T13:42:17.459Z,0.8
2017-10-01T13:44:17.463Z,0.7
2017-10-01T13:46:17.438Z,1
2017-10-01T13:48:17.425Z,0.9
2017-10-01T13:50:17.418Z,0.6
2017-10-01T13:52:17.421Z,0.8
2017-10-01T13:54:17.384Z,0.7
2017-10-01T13:56:17.368Z,0.6
2017-10-01T13:58:17.330Z,0.8
2017-10-01T14:00:17.315Z,0.8
2017-10-01T14:02:17.326Z,0.7
2017-10-01T14:04:17.295Z,0.7
2017-10-01T14:06:17.251Z,0.6
2017-10-01T14:08:17.294Z,0.7
2017-10-01T14:10:17.263Z,0.7
2017-10-01T14:12:17.239Z,0.5
2017-10-01T14:14:17.246Z,0.8
2017-10-01T14:16:17.221Z,0.6
2017-10-01T14:18:17.239Z,1.1
2017-10-01T14:20:17.245Z,0.9
2017-10-01T14:22:17.238Z,1.2
2017-10-01T14:24:17.261Z,0.9
2017-10-01T14:26:18.259Z,0.9
2017-10-01T14:28:17.232Z,0.7
2017-10-01T14:30:17.293Z,0.9
2017-10-01T14:32:17.244Z,1.1
2017-10-01T14:34:17.255Z,0.9
2017-10-01T14:36:17.263Z,1
2017-10-01T14:38:17.232Z,1
2017-10-01T14:40:18.233Z,0.9
2017-10-01T14:42:17.255Z,0.8
2017-10-01T14:44:17.238Z,0.9
2017-10-01T14:46:18.220Z,1.2
2017-10-01T14:48:17.256Z,1
2017-10-01T14:50:17.221Z,0.9
2017-10-01T14:52:17.206Z,1
2017-10-01T14:54:17.247Z,1
2017-10-01T14:56:18.199Z,2.5
2017-10-01T14:58:17.253Z,2.6
2017-10-01T15:00:17.238Z,1.5
2017-10-01T15:02:17.225Z,1
2017-10-01T15:04:17.229Z,1.3
2017-10-01T15:06:17.249Z,1.4
2017-10-01T15:08:17.244Z,1.6
2017-10-01T15:10:18.245Z,1.7
2017-10-01T15:12:17.266Z,1.7
2017-10-01T15:14:17.269Z,1.4
2017-10-01T15:16:17.235Z,2.8
2017-10-01T15:18:17.249Z,1.8
2017-10-01T15:20:17.243Z,2.3
2017-10-01T15:22:17.249Z,2.9
2017-10-01T15:24:17.303Z,3
2017-10-01T15:26:18.275Z,1.7
2017-10-01T15:28:17.278Z,1.1
2017-10-01T15:30:17.387Z,0.9
2017-10-01T15:32:18.284Z,1
2017-10-01T15:34:17.292Z,1.2
2017-10-01T15:36:18.290Z,1.1
2017-10-01T15:38:17.287Z,1.3
2017-10-01T15:40:17.317Z,1.6
2017-10-01T15:42:17.273Z,1.8
2017-10-01T15:44:17.278Z,1.7
2017-10-01T15:46:17.320Z,1.7
2017-10-01T15:48:17.271Z,1.9
2017-10-01T15:50:17.278Z,1.6
2017-10-01T15:52:17.289Z,1.7
2017-10-01T15:54:17.285Z,1.6
2017-10-01T15:56:17.295Z,2
2017-10-01T15:58:17.322Z,1.4
2017-10-01T16:00:17.307Z,1.8
2017-10-01T16:02:17.309Z,1.8
2017-10-01T16:04:17.321Z,1.5
2017-10-01T16:06:17.314Z,1.4
2017-10-01T16:08:17.313Z,1.6
2017-10-01T16:10:17.331Z,1.7
2017-10-01T16:12:17.305Z,2
2017-10-01T16:14:17.325Z,2.1
2017-10-01T16:16:18.335Z,2.7
2017-10-01T16:18:17.319Z,2.1
2017-10-01T16:20:17.296Z,2.3
2017-10-01T16:22:17.294Z,2.5
2017-10-01T16:24:17.275Z,2.2
2017-10-01T16:26:17.279Z,1.8
2017-10-01T16:28:17.308Z,1.8
2017-10-01T16:30:17.283Z,3.4
2017-10-01T16:32:17.270Z,2.7
2017-10-01T16:34:17.298Z,2.6
2017-10-01T16:36:18.294Z,2.4
2017-10-01T16:38:17.293Z,2.5
2017-10-01T16:40:17.292Z,2.4
2017-10-01T16:42:17.296Z,3.6
2017-10-01T16:44:17.285Z,3.3
2017-10-01T16:46:17.275Z,3.3
2017-10-01T16:48:17.267Z,3.8
2017-10-01T16:50:17.252Z,2.7
2017-10-01T16:52:17.238Z,2.7
2017-10-01T16:54:17.228Z,2.5
2017-10-01T16:56:17.233Z,2.8
2017-10-01T16:58:17.207Z,2.5
2017-10-01T17:00:17.200Z,3.2
2017-10-01T17:02:17.207Z,2.8
2017-10-01T17:04:17.190Z,1.8
2017-10-01T17:06:17.215Z,1.9
2017-10-01T17:08:17.190Z,2
2017-10-01T17:10:18.177Z,2
2017-10-01T17:12:17.162Z,2.1
2017-10-01T17:14:17.208Z,2.7
2017-10-01T17:16:17.167Z,2.4
2017-10-01T17:18:17.184Z,1.6
2017-10-01T17:20:17.199Z,1.7
2017-10-01T17:22:17.213Z,1.9
2017-10-01T17:24:17.202Z,3
2017-10-01T17:26:18.211Z,2
2017-10-01T17:28:17.179Z,1.8
2017-10-01T17:30:17.185Z,2.4
2017-10-01T17:32:17.211Z,2.8
2017-10-01T17:34:17.201Z,2.7
2017-10-01T17:36:18.188Z,3.3
2017-10-01T17:38:17.219Z,3.5
2017-10-01T17:40:18.171Z,2.5
2017-10-01T17:42:17.161Z,2.8
2017-10-01T17:44:17.183Z,2.7
2017-10-01T17:46:17.164Z,2.1
2017-10-01T17:48:17.130Z,2.6
2017-10-01T17:50:17.109Z,2.9
2017-10-01T17:52:17.118Z,2.9
2017-10-01T17:54:17.123Z,2.5
2017-10-01T17:56:17.067Z,2.8
2017-10-01T17:58:17.063Z,3
2017-10-01T18:00:17.047Z,2.5
2017-10-01T18:02:17.028Z,2.5
2017-10-01T18:04:17.013Z,2.6
2017-10-01T18:06:18.021Z,2.6
2017-10-01T18:08:16.987Z,2.4
2017-10-01T18:10:17.964Z,2.4
2017-10-01T18:12:16.970Z,2.6
2017-10-01T18:14:16.906Z,3.4
2017-10-01T18:16:17.917Z,2.6
2017-10-01T18:18:16.939Z,2.4
2017-10-01T18:20:16.909Z,3
2017-10-01T18:22:16.864Z,2
2017-10-01T18:24:16.865Z,2.4
2017-10-01T18:26:16.837Z,2.4
2017-10-01T18:28:16.805Z,2.2
2017-10-01T18:30:16.787Z,2.1
2017-10-01T18:32:16.764Z,2.3
2017-10-01T18:34:16.733Z,2.9
2017-10-01T18:36:17.707Z,2.8
2017-10-01T18:38:17.682Z,1.8
2017-10-01T18:40:17.694Z,1.4
2017-10-01T18:42:17.673Z,2.7
2017-10-01T18:44:17.665Z,2.9
2017-10-01T18:46:17.619Z,2.2
2017-10-01T18:48:17.592Z,1.7
2017-10-01T18:50:17.581Z,1.9
2017-10-01T18:52:17.604Z,2
2017-10-01T18:54:17.539Z,2.1
2017-10-01T18:56:17.548Z,2.2
2017-10-01T18:58:17.536Z,2.4
2017-10-01T19:00:17.463Z,2.4
2017-10-01T19:02:17.458Z,2.4
2017-10-01T19:04:17.462Z,2.8
2017-10-01T19:06:17.410Z,2.1
2017-10-01T19:08:17.402Z,2.8
2017-10-01T19:10:17.369Z,2.4
2017-10-01T19:12:17.372Z,2.3
2017-10-01T19:14:17.330Z,2.6
2017-10-01T19:16:17.301Z,2.2
2017-10-01T19:18:17.272Z,3.6
2017-10-01T19:20:17.245Z,2.8
2017-10-01T19:22:17.207Z,2.8
2017-10-01T19:24:17.159Z,2.4
2017-10-01T19:26:17.183Z,3.1
2017-10-01T19:28:17.126Z,3.6
2017-10-01T19:30:17.087Z,3
2017-10-01T19:32:17.071Z,3.1
2017-10-01T19:34:17.023Z,3
2017-10-01T19:36:17.968Z,3
2017-10-01T19:38:16.976Z,2.9
2017-10-01T19:40:17.926Z,3.2
2017-10-01T19:42:16.893Z,3.2
2017-10-01T19:44:16.882Z,3.2
2017-10-01T19:46:16.835Z,3.1
2017-10-01T19:48:16.816Z,3.2
2017-10-01T19:50:16.761Z,3.2
2017-10-01T19:52:16.712Z,3
2017-10-01T19:54:17.653Z,3.8
2017-10-01T19:56:17.595Z,3
2017-10-01T19:58:17.553Z,3.1
2017-10-01T20:00:17.572Z,3.7
2017-10-01T20:02:17.489Z,3.5
2017-10-01T20:04:17.448Z,3
2017-10-01T20:06:17.388Z,3
2017-10-01T20:08:17.345Z,3.5
2017-10-01T20:10:17.314Z,3.8
2017-10-01T20:12:17.286Z,4.5
2017-10-01T20:14:17.199Z,4.7
2017-10-01T20:16:18.158Z,5.1
2017-10-01T20:18:17.137Z,5.3
2017-10-01T20:20:17.026Z,5
2017-10-01T20:22:16.979Z,5.2
2017-10-01T20:24:16.949Z,5.5
2017-10-01T20:26:17.871Z,4.3
2017-10-01T20:28:16.831Z,4.3
2017-10-01T20:30:16.778Z,4
2017-10-01T20:32:16.698Z,5.1
2017-10-01T20:34:17.670Z,4.2
2017-10-01T20:36:17.588Z,4
2017-10-01T20:38:17.521Z,4.3
2017-10-01T20:40:17.441Z,4.8
2017-10-01T20:42:17.401Z,5.6
2017-10-01T20:44:17.320Z,5.6
2017-10-01T20:46:18.294Z,5.3
2017-10-01T20:48:17.215Z,4.8
2017-10-01T20:50:17.146Z,5.2
2017-10-01T20:52:17.104Z,5
2017-10-01T20:54:17.042Z,4.8
2017-10-01T20:56:16.977Z,4.8
2017-10-01T20:58:16.955Z,5.1
2017-10-01T21:00:16.870Z,4.6
2017-10-01T21:02:16.856Z,4.7
2017-10-01T21:04:16.792Z,4.8
2017-10-01T21:06:17.712Z,4.7
2017-10-01T21:08:17.662Z,4.9
2017-10-01T21:10:17.585Z,5
2017-10-01T21:12:17.543Z,4.6
2017-10-01T21:14:17.459Z,4.5
2017-10-01T21:16:18.459Z,4.7
2017-10-01T21:18:17.417Z,5.1
2017-10-01T21:20:17.331Z,5
2017-10-01T21:22:17.297Z,4.9
2017-10-01T21:24:17.224Z,4.6
2017-10-01T21:26:18.146Z,4.5
2017-10-01T21:28:17.101Z,4.7
2017-10-01T21:30:17.022Z,4.7
2017-10-01T21:32:16.954Z,4.1
2017-10-01T21:34:16.918Z,4.4
2017-10-01T21:36:17.835Z,4.6
2017-10-01T21:38:16.786Z,4.2
2017-10-01T21:40:17.764Z,4.8
2017-10-01T21:42:16.670Z,4.7
2017-10-01T21:44:17.618Z,4.3
2017-10-01T21:46:17.589Z,4.3
2017-10-01T21:48:17.508Z,4.7
2017-10-01T21:50:17.444Z,4.2
2017-10-01T21:52:17.417Z,4.7
2017-10-01T21:54:17.322Z,4.5
2017-10-01T21:56:17.255Z,4.4
2017-10-01T21:58:17.215Z,4.2
2017-10-01T22:00:17.131Z,4
2017-10-01T22:02:17.072Z,4.4
2017-10-01T22:04:17.017Z,4.5
2017-10-01T22:06:16.946Z,4.8
2017-10-01T22:08:16.863Z,4.4
2017-10-01T22:10:17.830Z,4.3
2017-10-01T22:12:16.749Z,4.3
2017-10-01T22:14:16.722Z,3.9
2017-10-01T22:16:17.644Z,3.9
2017-10-01T22:18:17.588Z,4.9
2017-10-01T22:20:17.581Z,4.4
2017-10-01T22:22:17.485Z,4.6
2017-10-01T22:26:17.411Z,5
2017-10-01T22:28:17.312Z,4.7
2017-10-01T22:30:17.278Z,5.3
2017-10-01T22:32:17.229Z,4.6
2017-10-01T22:34:17.143Z,5.5
2017-10-01T22:36:17.116Z,5
2017-10-01T22:38:17.061Z,5.8
2017-10-01T22:40:17.969Z,5.7
2017-10-01T22:42:16.925Z,5.4
2017-10-01T22:44:16.871Z,5.2
2017-10-01T22:46:17.797Z,5.6
2017-10-01T22:48:16.741Z,4.8
2017-10-01T22:50:16.673Z,5.9
2017-10-01T22:52:17.657Z,5.3
2017-10-01T22:54:17.560Z,6
2017-10-01T22:56:17.504Z,5.6
2017-10-01T22:58:17.419Z,6.1
2017-10-01T23:00:17.402Z,5.3
2017-10-01T23:02:17.330Z,6
2017-10-01T23:04:17.231Z,6.2
2017-10-01T23:06:17.210Z,6.3
2017-10-01T23:08:17.136Z,6.3
2017-10-01T23:10:18.029Z,6.6
2017-10-01T23:12:16.972Z,6.9
2017-10-01T23:14:16.887Z,7
2017-10-01T23:16:17.810Z,7.1
2017-10-01T23:18:16.753Z,7.3
2017-10-01T23:20:16.672Z,6.3
2017-10-01T23:22:17.588Z,6
2017-10-01T23:24:17.551Z,7.1
2017-10-01T23:26:17.439Z,6.3
2017-10-01T23:28:17.364Z,7.2
2017-10-01T23:30:17.309Z,6.9
2017-10-01T23:32:17.209Z,7.3
2017-10-01T23:34:17.132Z,7
2017-10-01T23:36:17.055Z,7.4
2017-10-01T23:38:16.958Z,6.6
2017-10-01T23:40:17.916Z,6.7
2017-10-01T23:42:16.814Z,7.2
2017-10-01T23:44:16.738Z,6.4
2017-10-01T23:46:17.656Z,7.3
2017-10-01T23:48:17.542Z,6.4
2017-10-01T23:50:17.477Z,6.1
2017-10-01T23:52:17.417Z,6.7
2017-10-01T23:54:17.323Z,6.6
2017-10-01T23:56:17.264Z,6.6
2017-10-01T23:58:17.178Z,6.1
